Time;durP1;ratioP1;P1;durP2;ratioP2;P2;SDS_P1;SDS_P2;PMS_P1;PMS_P2;Temp;Humidity;BMP_temperature;BMP_pressure;BME280_temperature;BME280_humidity;BME280_pressure;Samples;Min_cycle;Max_cycle;Signal;HPM_P1;HPM_P2
2022/06/25 00:01:35;;;;;;;0.40;0.30;;;;;;;30.73;38.73;98977.07;1834082;77;28220;-43
2022/06/25 00:07:30;;;;;;;0.30;0.30;;;;;;;30.75;38.67;98976.75;1814853;78;28301;-42
2022/06/25 00:10:20;;;;;;;0.40;0.40;;;;;;;30.70;38.72;98976.27;1827605;76;28269;-45
2022/06/25 00:13:09;;;;;;;0.30;0.30;;;;;;;30.70;38.71;98969.90;1804825;78;28293;-42
2022/06/25 00:15:58;;;;;;;0.37;0.37;;;;;;;30.72;38.71;98966.26;1839114;77;28325;-45
2022/06/25 00:18:46;;;;;;;0.30;0.30;;;;;;;30.72;38.76;98964.87;1828398;77;33138;-43
2022/06/25 00:21:35;;;;;;;0.40;0.40;;;;;;;30.72;38.72;98967.64;1787664;78;28407;-44
2022/06/25 00:24:24;;;;;;;0.40;0.40;;;;;;;30.73;38.69;98973.47;1805947;78;28298;-45
2022/06/25 00:27:12;;;;;;;0.30;0.30;;;;;;;30.73;38.67;98968.75;1827373;77;28380;-41
2022/06/25 00:30:00;;;;;;;0.40;0.40;;;;;;;30.73;38.69;98969.30;1838325;77;28209;-45
2022/06/25 00:32:49;;;;;;;0.25;0.25;;;;;;;30.73;38.64;98972.08;1811322;77;28143;-44
2022/06/25 00:35:37;;;;;;;0.30;0.30;;;;;;;30.75;38.63;98976.75;1799886;79;28345;-42
2022/06/25 00:38:26;;;;;;;0.47;0.47;;;;;;;30.74;38.63;98975.92;1835085;77;28264;-44
2022/06/25 00:41:14;;;;;;;0.40;0.40;;;;;;;30.75;38.59;98975.37;1834680;77;28361;-45
2022/06/25 00:44:10;;;;;;;0.30;0.30;;;;;;;30.73;38.60;98979.84;1799879;79;28372;-42
2022/06/25 00:46:59;;;;;;;0.40;0.40;;;;;;;30.74;38.59;98975.09;1810657;78;28322;-43
2022/06/25 00:49:47;;;;;;;0.40;0.33;;;;;;;30.72;38.61;98971.25;1806249;79;28240;-43
2022/06/25 00:52:38;;;;;;;0.30;0.30;;;;;;;30.71;38.61;98974.33;1837933;77;28230;-43
2022/06/25 00:55:30;;;;;;;0.28;0.28;;;;;;;30.73;38.60;98973.47;1799113;79;28446;-43
2022/06/25 00:58:22;;;;;;;0.40;0.35;;;;;;;30.70;38.59;98967.95;1836928;77;28244;-42
2022/06/25 01:01:10;;;;;;;0.23;0.23;;;;;;;30.73;38.64;98972.08;1817746;77;28281;-44
2022/06/25 01:03:59;;;;;;;0.30;0.30;;;;;;;30.71;38.62;98972.95;1828965;77;28087;-46
2022/06/25 01:06:48;;;;;;;0.40;0.40;;;;;;;30.71;38.58;98975.13;1813467;78;28149;-44
2022/06/25 01:09:40;;;;;;;0.30;0.30;;;;;;;30.72;38.57;98971.80;1814693;77;28388;-44
2022/06/25 01:12:30;;;;;;;0.30;0.30;;;;;;;30.70;38.59;98971.28;1826926;76;28318;-42
2022/06/25 01:15:21;;;;;;;0.20;0.20;;;;;;;30.71;38.60;98975.72;1835932;77;28130;-47
2022/06/25 01:18:09;;;;;;;0.33;0.33;;;;;;;30.70;38.60;98974.06;1834654;76;28342;-44
2022/06/25 01:20:58;;;;;;;0.23;0.20;;;;;;;30.72;38.56;98969.03;1832174;77;28151;-46
2022/06/25 01:23:46;;;;;;;0.30;0.30;;;;;;;30.70;38.57;98973.50;1802659;77;28388;-44
2022/06/25 01:26:36;;;;;;;0.40;0.40;;;;;;;30.71;38.56;98971.56;1806807;77;28215;-45
2022/06/25 01:29:25;;;;;;;0.30;0.30;;;;;;;30.69;38.58;98970.45;1812362;77;28282;-46
2022/06/25 01:32:14;;;;;;;0.45;0.45;;;;;;;30.71;38.56;98968.78;1829920;77;28220;-44
2022/06/25 01:35:05;;;;;;;0.30;0.30;;;;;;;30.71;38.57;98966.81;1788615;78;28438;-42
2022/06/25 01:37:55;;;;;;;0.40;0.40;;;;;;;30.70;38.58;98966.56;1837763;77;28150;-43
2022/06/25 01:40:43;;;;;;;0.20;0.20;;;;;;;30.69;38.54;98969.66;1812034;78;31224;-42
2022/06/25 01:43:32;;;;;;;0.30;0.30;;;;;;;30.67;38.55;98966.33;1843268;77;28682;-46
2022/06/25 01:46:21;;;;;;;0.23;0.23;;;;;;;30.69;38.54;98969.66;1847676;77;28301;-42
2022/06/25 01:49:09;;;;;;;0.20;0.20;;;;;;;30.69;38.52;98962.72;1850097;77;28320;-42
2022/06/25 01:51:57;;;;;;;0.20;0.20;;;;;;;30.68;38.52;98953.58;1822845;77;28368;-43
2022/06/25 01:54:46;;;;;;;0.30;0.30;;;;;;;30.68;38.54;98952.74;1853457;77;28323;-44
2022/06/25 01:57:35;;;;;;;0.30;0.30;;;;;;;30.69;38.52;98946.09;1846971;76;28139;-42
2022/06/25 02:00:27;;;;;;;0.20;0.20;;;;;;;30.68;38.53;98949.97;1816975;77;28152;-44
2022/06/25 02:03:17;;;;;;;0.30;0.30;;;;;;;30.70;38.51;98956.03;1811556;77;28609;-44
2022/06/25 02:06:06;;;;;;;0.28;0.28;;;;;;;30.70;38.49;98961.58;1816835;77;33143;-42
2022/06/25 02:08:55;;;;;;;0.30;0.30;;;;;;;30.71;38.50;98950.77;1827864;78;28380;-43
2022/06/25 02:11:44;;;;;;;0.20;0.20;;;;;;;30.69;38.50;98948.27;1835056;77;28232;-42
2022/06/25 02:14:33;;;;;;;0.37;0.37;;;;;;;30.71;38.48;98943.83;1831808;77;28213;-43
2022/06/25 02:17:21;;;;;;;0.20;0.20;;;;;;;30.69;38.48;98948.86;1831948;77;28262;-42
2022/06/25 02:20:11;;;;;;;0.30;0.30;;;;;;;30.70;38.47;98949.10;1832353;77;28340;-43
2022/06/25 02:23:02;;;;;;;0.30;0.30;;;;;;;30.68;38.48;98945.81;1789226;78;28770;-44
2022/06/25 02:25:52;;;;;;;0.20;0.20;;;;;;;30.68;38.46;98948.58;1784985;79;28243;-43
2022/06/25 02:28:42;;;;;;;0.30;0.30;;;;;;;30.66;38.48;98944.73;1834179;77;28270;-42
2022/06/25 02:31:31;;;;;;;0.23;0.23;;;;;;;30.67;38.49;98947.75;1786934;79;28416;-45
2022/06/25 02:34:19;;;;;;;0.30;0.30;;;;;;;30.66;38.50;98943.91;1824752;77;28165;-42
2022/06/25 02:37:09;;;;;;;0.30;0.30;;;;;;;30.67;38.48;98938.61;1830870;77;28259;-44
2022/06/25 02:39:58;;;;;;;0.20;0.20;;;;;;;30.64;38.47;98940.03;1795688;78;28326;-42
2022/06/25 02:42:47;;;;;;;0.20;0.20;;;;;;;30.65;38.50;98940.30;1777864;79;28438;-44
2022/06/25 02:45:38;;;;;;;0.62;0.33;;;;;;;30.67;38.45;98944.15;1784539;79;28364;-45
2022/06/25 02:48:27;;;;;;;0.30;0.30;;;;;;;30.65;38.45;98944.46;1825529;77;28205;-45
2022/06/25 02:51:15;;;;;;;0.30;0.30;;;;;;;30.66;38.42;98942.52;1796152;79;28359;-44
2022/06/25 02:54:04;;;;;;;0.20;0.20;;;;;;;30.67;38.47;98942.20;1786254;78;28301;-46
2022/06/25 03:00:08;;;;;;;0.30;0.30;;;;;;;30.68;38.40;98943.87;1739106;81;30265;-46
2022/06/25 03:02:56;;;;;;;0.40;0.40;;;;;;;30.60;38.50;98946.48;1826177;78;28310;-44
2022/06/25 03:05:46;;;;;;;0.30;0.30;;;;;;;30.62;38.45;98942.87;1830106;77;28226;-43
2022/06/25 03:08:36;;;;;;;0.30;0.30;;;;;;;30.64;38.43;98939.23;1788308;78;28310;-44
2022/06/25 03:11:24;;;;;;;0.23;0.23;;;;;;;30.65;38.43;98939.47;1807177;78;28234;-42
2022/06/25 03:14:14;;;;;;;0.30;0.30;;;;;;;30.67;38.38;98939.44;1837260;77;28310;-42
2022/06/25 03:17:03;;;;;;;0.20;0.20;;;;;;;30.64;38.37;98936.45;1839220;76;28249;-42
2022/06/25 03:19:53;;;;;;;0.40;0.40;;;;;;;30.63;38.39;98936.18;1785387;79;28325;-41
2022/06/25 03:22:46;;;;;;;0.40;0.40;;;;;;;30.65;38.36;98940.86;1802328;77;28342;-42
2022/06/25 03:25:35;;;;;;;0.30;0.30;;;;;;;30.65;38.38;98931.98;1827846;77;28303;-42
2022/06/25 03:28:25;;;;;;;0.30;0.30;;;;;;;30.65;38.36;98929.77;1835612;77;28265;-43
2022/06/25 03:31:14;;;;;;;0.30;0.30;;;;;;;30.64;38.37;98925.36;1834933;77;28228;-42
2022/06/25 03:34:03;;;;;;;0.30;0.30;;;;;;;30.67;38.40;98931.67;1797861;78;28223;-41
2022/06/25 03:37:06;;;;;;;0.37;0.37;;;;;;;30.66;38.35;98925.33;1808741;77;28305;-46
2022/06/25 03:39:54;;;;;;;0.30;0.30;;;;;;;30.60;38.38;98918.20;1837851;77;28216;-42
2022/06/25 03:42:44;;;;;;;0.20;0.20;;;;;;;30.60;38.42;98916.81;1835390;77;28237;-42
2022/06/25 03:45:34;;;;;;;0.30;0.30;;;;;;;30.62;38.38;98916.53;1811564;78;28291;-43
2022/06/25 03:48:24;;;;;;;0.30;0.30;;;;;;;30.63;38.36;98920.38;1837096;77;28313;-46
2022/06/25 03:51:14;;;;;;;0.20;0.20;;;;;;;30.63;38.35;98920.93;1817874;77;28250;-43
2022/06/25 03:54:04;;;;;;;0.50;0.50;;;;;;;30.63;38.33;98927.86;1833483;77;28305;-44
2022/06/25 03:56:53;;;;;;;0.40;0.40;;;;;;;30.64;38.33;98933.68;1815193;77;28197;-43
2022/06/25 03:59:43;;;;;;;0.40;0.40;;;;;;;30.64;38.31;98935.06;1828053;77;28298;-42
2022/06/25 04:02:34;;;;;;;0.35;0.35;;;;;;;30.61;38.34;98934.27;1839715;77;28150;-42
2022/06/25 04:05:40;;;;;;;0.30;0.30;;;;;;;30.62;38.34;98933.16;1837882;77;28253;-44
2022/06/25 04:08:30;;;;;;;0.50;0.50;;;;;;;30.54;38.38;98931.05;1832940;77;28255;-42
2022/06/25 04:11:20;;;;;;;0.40;0.40;;;;;;;30.61;38.38;98939.82;1836724;77;28362;-43
2022/06/25 04:14:13;;;;;;;0.30;0.30;;;;;;;30.61;38.32;98942.59;1829766;77;28198;-44
2022/06/25 04:17:02;;;;;;;0.37;0.37;;;;;;;30.60;38.29;98938.16;1841666;77;28190;-42
2022/06/25 04:19:53;;;;;;;0.30;0.30;;;;;;;30.61;38.32;98935.66;1805171;78;28240;-43
2022/06/25 04:22:42;;;;;;;0.47;0.47;;;;;;;30.61;38.32;98936.49;1768819;77;28322;-44
2022/06/25 04:25:31;;;;;;;0.40;0.40;;;;;;;30.61;38.27;98931.50;1783138;79;28415;-43
2022/06/25 04:31:27;;;;;;;0.50;0.50;;;;;;;30.63;38.27;98939.78;1806823;77;28139;-42
2022/06/25 04:34:16;;;;;;;0.30;0.30;;;;;;;30.58;38.30;98939.86;1844427;77;28675;-44
2022/06/25 04:37:06;;;;;;;0.30;0.30;;;;;;;30.58;38.32;98928.77;1793817;79;28298;-44
2022/06/25 04:39:54;;;;;;;0.50;0.50;;;;;;;30.56;38.29;98925.48;1792965;77;28462;-45
2022/06/25 04:42:43;;;;;;;0.40;0.40;;;;;;;30.57;38.29;98923.53;1788476;78;28325;-42
2022/06/25 04:45:32;;;;;;;0.23;0.23;;;;;;;30.59;38.28;98924.05;1773200;79;28482;-44
2022/06/25 04:48:40;;;;;;;0.40;0.40;;;;;;;30.61;38.26;98930.12;1812466;77;28230;-42
2022/06/25 04:51:42;;;;;;;0.40;0.40;;;;;;;30.58;38.26;98926.55;1832503;77;28232;-45
2022/06/25 04:54:32;;;;;;;0.40;0.40;;;;;;;30.56;38.47;98922.70;1834555;77;28294;-42
2022/06/25 04:57:24;;;;;;;0.40;0.40;;;;;;;30.56;38.47;98922.70;1830566;77;28696;-42
2022/06/25 05:00:30;;;;;;;0.40;0.40;;;;;;;30.58;38.29;98932.09;1816146;78;28243;-46
2022/06/25 05:03:18;;;;;;;0.33;0.33;;;;;;;30.56;38.30;98927.42;1810939;78;28235;-44
2022/06/25 05:06:09;;;;;;;0.42;0.42;;;;;;;30.57;38.30;98929.88;1832629;77;28262;-43
2022/06/25 05:08:58;;;;;;;0.28;0.28;;;;;;;30.57;38.25;98930.47;1827236;78;28235;-43
2022/06/25 05:11:48;;;;;;;0.40;0.40;;;;;;;30.58;38.25;98927.37;1824713;77;28158;-42
2022/06/25 05:14:37;;;;;;;0.30;0.30;;;;;;;30.60;38.23;98929.28;1803126;77;28236;-44
2022/06/25 05:17:26;;;;;;;0.30;0.30;;;;;;;30.59;38.20;98929.05;1827754;77;28173;-43
2022/06/25 05:20:14;;;;;;;0.40;0.40;;;;;;;30.58;38.21;98926.55;1828170;77;28212;-42
2022/06/25 05:23:02;;;;;;;0.20;0.20;;;;;;;30.60;38.20;98929.84;1812873;77;28206;-42
2022/06/25 05:25:51;;;;;;;0.40;0.40;;;;;;;30.60;38.17;98932.61;1810291;77;28219;-41
2022/06/25 05:28:41;;;;;;;0.40;0.30;;;;;;;30.60;38.18;98928.45;1820636;77;28283;-42
2022/06/25 05:31:30;;;;;;;0.40;0.40;;;;;;;30.58;38.19;98926.00;1833295;77;28158;-42
2022/06/25 05:34:18;;;;;;;0.40;0.40;;;;;;;30.57;38.21;98929.08;1802189;77;28260;-42
2022/06/25 05:37:07;;;;;;;0.30;0.30;;;;;;;30.57;38.23;98922.95;1840241;77;31203;-41
2022/06/25 05:39:55;;;;;;;0.40;0.40;;;;;;;30.57;38.17;98927.11;1830876;77;28267;-41
2022/06/25 05:42:44;;;;;;;0.30;0.30;;;;;;;30.57;38.20;98929.88;1833781;77;28377;-44
2022/06/25 05:45:33;;;;;;;0.30;0.30;;;;;;;30.55;38.22;98927.17;1810423;78;28302;-41
2022/06/25 05:48:21;;;;;;;0.20;0.20;;;;;;;30.57;38.20;98920.77;1841688;77;28201;-43
2022/06/25 05:51:10;;;;;;;0.30;0.30;;;;;;;30.57;38.17;98922.15;1788204;78;28349;-42
2022/06/25 05:53:58;;;;;;;0.40;0.40;;;;;;;30.59;38.15;98917.95;1814388;77;28172;-42
2022/06/25 05:56:46;;;;;;;0.35;0.35;;;;;;;30.56;38.18;98922.70;1839699;76;33260;-43
2022/06/25 05:59:35;;;;;;;0.40;0.40;;;;;;;30.56;38.14;98921.88;1838391;77;28077;-43
2022/06/25 06:02:26;;;;;;;0.20;0.20;;;;;;;30.56;38.18;98914.94;1838259;76;28170;-46
2022/06/25 06:05:14;;;;;;;0.30;0.30;;;;;;;30.55;38.15;98921.63;1814266;78;28086;-43
2022/06/25 06:08:04;;;;;;;0.30;0.30;;;;;;;30.55;38.20;98923.02;1829298;77;28251;-42
2022/06/25 06:10:52;;;;;;;0.20;0.20;;;;;;;30.56;38.18;98923.26;1828994;77;28576;-46
2022/06/25 06:13:41;;;;;;;0.30;0.30;;;;;;;30.54;38.16;98914.42;1827144;78;28266;-42
2022/06/25 06:16:29;;;;;;;0.30;0.30;;;;;;;30.55;38.15;98916.09;1812635;78;28243;-43
2022/06/25 06:19:18;;;;;;;0.30;0.30;;;;;;;30.58;38.15;98915.46;1835615;77;28393;-42
2022/06/25 06:22:07;;;;;;;0.40;0.40;;;;;;;30.56;38.14;98914.39;1834964;77;28173;-43
2022/06/25 06:24:55;;;;;;;0.30;0.30;;;;;;;30.57;38.13;98919.37;1827376;78;28356;-43
2022/06/25 06:27:43;;;;;;;0.40;0.40;;;;;;;30.58;38.12;98921.00;1810938;78;28333;-43
2022/06/25 06:30:31;;;;;;;0.30;0.30;;;;;;;30.58;38.11;98915.46;1834842;76;28269;-42
2022/06/25 06:33:20;;;;;;;0.23;0.23;;;;;;;30.58;38.09;98913.52;1833739;77;28231;-42
2022/06/25 06:36:08;;;;;;;0.30;0.30;;;;;;;30.59;38.09;98907.42;1792526;79;29136;-43
2022/06/25 06:38:57;;;;;;;0.30;0.30;;;;;;;30.56;38.10;98906.62;1771335;80;28395;-43
2022/06/25 06:41:45;;;;;;;0.40;0.40;;;;;;;30.57;38.11;98906.31;1762094;79;28439;-45
2022/06/25 06:44:34;;;;;;;0.30;0.30;;;;;;;30.57;38.10;98909.67;1777127;78;28289;-41
2022/06/25 06:47:23;;;;;;;0.25;0.25;;;;;;;30.58;38.08;98907.14;1789184;79;28219;-43
2022/06/25 06:50:11;;;;;;;0.30;0.30;;;;;;;30.57;38.11;98910.47;1817286;77;28176;-42
2022/06/25 06:53:00;;;;;;;0.35;0.35;;;;;;;30.57;38.09;98909.09;1832104;77;28302;-42
2022/06/25 06:55:48;;;;;;;0.30;0.30;;;;;;;30.56;38.10;98911.62;1805786;78;28433;-43
2022/06/25 06:58:38;;;;;;;0.40;0.40;;;;;;;30.56;38.11;98906.62;1813379;78;28344;-42
2022/06/25 07:01:27;;;;;;;0.50;0.50;;;;;;;30.57;38.07;98909.09;1830488;78;28239;-46
2022/06/25 07:04:16;;;;;;;0.20;0.20;;;;;;;30.55;38.11;98903.61;1831393;77;28371;-44
2022/06/25 07:07:04;;;;;;;0.40;0.40;;;;;;;30.54;38.15;98901.39;1837226;77;28607;-46
2022/06/25 07:09:52;;;;;;;0.30;0.30;;;;;;;30.53;38.15;98898.91;1811585;78;28321;-43
2022/06/25 07:12:41;;;;;;;0.20;0.20;;;;;;;30.53;38.15;98897.52;1838458;77;28231;-45
2022/06/25 07:15:30;;;;;;;0.20;0.20;;;;;;;30.56;38.16;98899.70;1837601;77;28158;-43
2022/06/25 07:18:19;;;;;;;0.20;0.20;;;;;;;30.53;38.17;98894.74;1831581;77;28135;-46
2022/06/25 07:21:07;;;;;;;0.42;0.40;;;;;;;30.52;38.23;98892.56;1836862;77;28347;-48
2022/06/25 07:23:56;;;;;;;0.30;0.30;;;;;;;30.54;38.17;98888.92;1829549;77;28265;-43
2022/06/25 07:26:44;;;;;;;0.30;0.30;;;;;;;30.53;38.15;98885.05;1832395;77;28236;-42
2022/06/25 07:29:33;;;;;;;0.40;0.40;;;;;;;30.51;38.22;98888.13;1813744;78;28372;-45
2022/06/25 07:32:21;;;;;;;0.20;0.20;;;;;;;30.54;38.21;98877.83;1829738;78;31369;-41
2022/06/25 07:35:10;;;;;;;0.30;0.30;;;;;;;30.52;38.20;98881.47;1827869;77;28186;-42
2022/06/25 07:37:58;;;;;;;0.28;0.28;;;;;;;30.53;38.23;98877.56;1787180;79;28238;-44
2022/06/25 07:40:46;;;;;;;0.30;0.30;;;;;;;30.54;38.18;98870.91;1756366;79;31613;-43
2022/06/25 07:43:35;;;;;;;0.20;0.20;;;;;;;30.54;38.18;98868.13;1785551;79;28300;-43
2022/06/25 07:46:23;;;;;;;0.40;0.40;;;;;;;30.55;38.18;98874.50;1765554;80;28479;-43
2022/06/25 07:49:12;;;;;;;0.40;0.40;;;;;;;30.50;38.22;98864.29;1795266;77;28326;-43
2022/06/25 07:52:00;;;;;;;0.20;0.20;;;;;;;30.52;38.16;98866.22;1833875;77;28631;-45
2022/06/25 07:54:50;;;;;;;0.40;0.40;;;;;;;30.53;38.20;98867.85;1814553;77;29362;-44
2022/06/25 07:57:38;;;;;;;0.30;0.25;;;;;;;30.54;38.21;98857.59;1829859;76;28379;-43
2022/06/25 08:00:27;;;;;;;0.30;0.30;;;;;;;30.54;38.20;98861.20;1841438;77;28183;-42
2022/06/25 08:03:15;;;;;;;0.30;0.30;;;;;;;30.55;38.14;98857.87;1787766;78;28237;-44
2022/06/25 08:06:06;;;;;;;0.50;0.35;;;;;;;30.54;38.14;98860.37;1831258;77;28791;-42
2022/06/25 08:08:55;;;;;;;0.30;0.30;;;;;;;30.54;38.18;98856.21;1790395;78;28334;-43
2022/06/25 08:11:44;;;;;;;0.30;0.30;;;;;;;30.57;38.15;98851.45;1806534;77;30195;-43
2022/06/25 08:14:33;;;;;;;0.30;0.30;;;;;;;30.56;38.10;98846.47;1825653;77;28627;-44
2022/06/25 08:17:22;;;;;;;0.20;0.20;;;;;;;30.57;38.10;98837.59;1831962;77;28323;-42
2022/06/25 08:20:11;;;;;;;0.40;0.40;;;;;;;30.54;38.14;98837.64;1827330;77;28301;-43
2022/06/25 08:23:00;;;;;;;0.30;0.30;;;;;;;30.55;38.14;98843.42;1811949;78;28290;-42
2022/06/25 08:25:49;;;;;;;0.20;0.20;;;;;;;30.59;38.10;98836.73;1837860;77;28272;-43
2022/06/25 08:28:38;;;;;;;0.20;0.20;;;;;;;30.58;38.10;98835.06;1837950;77;28130;-43
2022/06/25 08:31:29;;;;;;;0.40;0.40;;;;;;;30.61;38.37;98831.70;1835088;77;28657;-43
2022/06/25 08:34:21;;;;;;;0.30;0.30;;;;;;;30.61;38.37;98831.70;1811967;78;28166;-41
2022/06/25 08:37:09;;;;;;;0.25;0.25;;;;;;;30.61;38.06;98826.16;1800393;77;28231;-43
2022/06/25 08:39:58;;;;;;;0.30;0.30;;;;;;;30.61;38.00;98819.22;1837564;77;28139;-43
2022/06/25 08:42:50;;;;;;;0.23;0.23;;;;;;;30.63;37.98;98819.73;1775961;79;28237;-42
2022/06/25 08:45:40;;;;;;;1.00;0.40;;;;;;;30.61;37.99;98810.34;1803275;78;28243;-42
2022/06/25 08:48:35;;;;;;;0.20;0.20;;;;;;;30.60;38.05;98814.23;1787183;78;28271;-43
2022/06/25 08:51:27;;;;;;;0.37;0.37;;;;;;;30.62;38.00;98811.17;1831571;77;28369;-42
2022/06/25 08:54:17;;;;;;;0.45;0.30;;;;;;;30.60;38.04;98796.77;1831938;77;28325;-43
2022/06/25 08:57:08;;;;;;;0.30;0.30;;;;;;;30.60;38.05;98798.16;1818539;77;28201;-42
2022/06/25 09:00:17;;;;;;;0.30;0.30;;;;;;;30.59;38.01;98783.50;1793238;78;28348;-44
2022/06/25 09:03:25;;;;;;;0.30;0.30;;;;;;;30.53;38.15;98783.31;1810805;77;28139;-44
2022/06/25 09:06:16;;;;;;;0.30;0.30;;;;;;;30.53;38.15;98779.70;1830794;77;28220;-42
2022/06/25 09:09:13;;;;;;;0.30;0.30;;;;;;;30.54;38.19;98773.05;1828537;77;28395;-44
2022/06/25 09:12:08;;;;;;;0.30;0.30;;;;;;;30.55;38.14;98770.55;1834831;76;28170;-42
2022/06/25 09:14:57;;;;;;;0.40;0.40;;;;;;;30.52;38.16;98760.89;1796998;78;28318;-45
2022/06/25 09:17:51;;;;;;;0.30;0.30;;;;;;;30.55;38.17;98760.84;1831802;77;28232;-43
2022/06/25 09:21:10;;;;;;;0.30;0.30;;;;;;;30.55;38.13;98761.64;1833635;77;28234;-42
2022/06/25 09:24:00;;;;;;;0.28;0.28;;;;;;;30.57;38.08;98759.38;1810116;78;28301;-43
2022/06/25 09:26:53;;;;;;;0.47;0.30;;;;;;;30.54;38.15;98757.80;1825635;76;28201;-41
2022/06/25 09:29:45;;;;;;;0.30;0.30;;;;;;;30.53;38.14;98744.50;1823743;77;28335;-43
2022/06/25 09:32:59;;;;;;;0.30;0.30;;;;;;;30.56;38.13;98742.52;1811385;78;28277;-43
2022/06/25 09:35:52;;;;;;;0.25;0.25;;;;;;;30.56;38.12;98745.28;1772687;80;28335;-43
2022/06/25 09:38:50;;;;;;;0.30;0.30;;;;;;;30.55;38.17;98741.44;1781861;80;28334;-43
2022/06/25 09:41:53;;;;;;;0.30;0.30;;;;;;;30.54;38.13;98742.00;1781603;80;28379;-43
2022/06/25 09:44:42;;;;;;;0.30;0.30;;;;;;;30.56;38.17;98743.06;1789027;79;28335;-43
2022/06/25 09:47:30;;;;;;;0.30;0.30;;;;;;;30.57;38.12;98725.32;1782547;80;28302;-41
2022/06/25 09:50:20;;;;;;;0.37;0.37;;;;;;;30.61;38.06;98718.03;1764079;79;28463;-43
2022/06/25 09:53:10;;;;;;;0.20;0.20;;;;;;;30.64;38.00;98715.45;1830433;77;28128;-42
2022/06/25 09:56:00;;;;;;;0.20;0.20;;;;;;;30.65;37.97;98708.79;1828600;77;28375;-45
2022/06/25 09:58:51;;;;;;;0.30;0.30;;;;;;;30.64;37.96;98709.11;1835794;77;28162;-43
2022/06/25 10:01:40;;;;;;;0.30;0.30;;;;;;;30.68;37.94;98710.12;1809866;78;28283;-43
2022/06/25 10:04:31;;;;;;;0.30;0.30;;;;;;;30.68;37.92;98705.41;1836895;76;28259;-42
2022/06/25 10:07:59;;;;;;;0.20;0.20;;;;;;;30.69;37.90;98707.04;1836952;77;28223;-43
2022/06/25 10:10:16;;;;;;;0.37;0.37;;;;;;;30.69;37.89;98703.47;1837080;77;28210;-41
2022/06/25 10:13:05;;;;;;;0.20;0.20;;;;;;;30.69;37.92;98696.54;1793566;78;28394;-45
2022/06/25 10:15:57;;;;;;;0.30;0.30;;;;;;;30.67;37.92;98691.84;1820041;77;28227;-44
2022/06/25 10:18:47;;;;;;;0.30;0.30;;;;;;;30.69;37.93;98690.99;1792611;77;28312;-44
2022/06/25 10:21:37;;;;;;;0.13;0.13;;;;;;;30.68;37.91;98690.72;1796354;79;28405;-42
2022/06/25 10:24:28;;;;;;;0.30;0.30;;;;;;;30.69;37.91;98683.47;1759408;79;28435;-43
2022/06/25 10:27:17;;;;;;;0.30;0.30;;;;;;;30.68;37.92;98687.95;1817413;77;28243;-45
2022/06/25 10:30:06;;;;;;;0.30;0.30;;;;;;;30.65;37.94;98681.06;1819173;77;28239;-42
2022/06/25 10:32:57;;;;;;;0.35;0.35;;;;;;;30.69;37.91;98682.67;1834162;77;28320;-44
2022/06/25 10:35:46;;;;;;;0.40;0.40;;;;;;;30.69;37.93;98679.91;1810505;78;28247;-44
2022/06/25 10:38:34;;;;;;;0.20;0.20;;;;;;;30.66;37.91;98677.18;1839896;77;28265;-43
2022/06/25 10:44:31;;;;;;;0.23;0.23;;;;;;;30.61;38.06;98663.41;1835006;77;28287;-44
2022/06/25 10:47:21;;;;;;;0.23;0.23;;;;;;;30.57;38.10;98658.80;1829812;77;28255;-44
2022/06/25 10:50:26;;;;;;;0.20;0.20;;;;;;;30.56;38.13;98651.59;1852924;77;35312;-42
2022/06/25 10:53:17;;;;;;;0.20;0.20;;;;;;;30.59;38.10;98646.83;1810317;77;28206;-42
2022/06/25 10:56:24;;;;;;;0.40;0.40;;;;;;;30.55;38.14;98645.22;1823308;78;28268;-42
2022/06/25 10:59:39;;;;;;;0.90;0.30;;;;;;;30.54;38.18;98645.53;1831671;77;28206;-43
2022/06/25 11:02:28;;;;;;;0.33;0.33;;;;;;;30.57;38.15;98634.64;1830365;77;28223;-44
2022/06/25 11:05:20;;;;;;;0.20;0.20;;;;;;;30.53;38.19;98632.23;1820852;77;28220;-45
2022/06/25 11:08:10;;;;;;;0.30;0.30;;;;;;;30.54;38.22;98630.30;1809967;78;28315;-47
2022/06/25 11:11:00;;;;;;;0.40;0.40;;;;;;;30.57;38.16;98628.30;1791558;78;28380;-42
2022/06/25 11:13:49;;;;;;;0.40;0.40;;;;;;;30.58;38.17;98627.98;1760491;80;28474;-42
2022/06/25 11:16:39;;;;;;;0.20;0.20;;;;;;;30.59;38.13;98628.81;1826307;77;28249;-44
2022/06/25 11:19:29;;;;;;;0.35;0.35;;;;;;;30.58;38.10;98615.50;1809731;78;28247;-43
2022/06/25 11:22:18;;;;;;;0.30;0.30;;;;;;;30.60;38.09;98611.86;1841292;77;28239;-46
2022/06/25 11:31:27;;;;;;;0.30;0.30;;;;;;;30.60;38.07;98608.25;1823745;77;28178;-48
2022/06/25 11:34:21;;;;;;;0.20;0.20;;;;;;;30.61;38.09;98607.14;1799887;79;28419;-43
2022/06/25 11:37:13;;;;;;;0.20;0.20;;;;;;;30.62;38.05;98606.81;1828567;78;28318;-45
2022/06/25 11:40:01;;;;;;;0.25;0.25;;;;;;;30.63;38.04;98600.72;1839842;77;28221;-47
2022/06/25 11:42:51;;;;;;;0.30;0.30;;;;;;;30.62;38.05;98606.81;1832802;77;28322;-43
2022/06/25 11:45:55;;;;;;;0.33;0.33;;;;;;;30.64;38.04;98603.17;1833847;77;28209;-43
2022/06/25 11:48:46;;;;;;;0.30;0.30;;;;;;;30.66;38.00;98602.32;1804672;78;28394;-45
2022/06/25 11:51:35;;;;;;;0.30;0.30;;;;;;;30.64;38.01;98599.01;1847408;77;28291;-43
2022/06/25 11:54:26;;;;;;;0.30;0.30;;;;;;;30.63;38.01;98587.69;1833553;77;28158;-43
2022/06/25 11:57:26;;;;;;;0.30;0.30;;;;;;;30.66;37.96;98586.24;1836157;77;28209;-43
2022/06/25 12:00:16;;;;;;;0.23;0.23;;;;;;;30.67;37.98;98585.92;1817064;77;28249;-45
2022/06/25 12:03:07;;;;;;;0.28;0.28;;;;;;;30.65;37.97;98579.88;1842280;77;28302;-42
2022/06/25 12:05:58;;;;;;;0.45;0.45;;;;;;;30.67;37.96;98586.48;1825943;77;28218;-44
2022/06/25 12:08:48;;;;;;;0.35;0.35;;;;;;;30.68;37.95;98590.91;1824083;77;28220;-42
2022/06/25 12:11:38;;;;;;;0.30;0.30;;;;;;;30.68;37.93;98583.98;1837606;77;28293;-48
2022/06/25 12:14:32;;;;;;;0.40;0.40;;;;;;;30.67;37.95;98578.99;1835514;77;28235;-45
2022/06/25 12:17:21;;;;;;;0.40;0.40;;;;;;;30.68;37.92;98576.48;1840094;77;28703;-42
2022/06/25 12:20:15;;;;;;;0.30;0.30;;;;;;;30.68;37.90;98570.12;1833148;77;28235;-45
2022/06/25 12:23:05;;;;;;;0.40;0.40;;;;;;;30.69;37.89;98578.70;1799994;79;28387;-46
2022/06/25 12:25:55;;;;;;;0.30;0.30;;;;;;;30.69;37.86;98575.34;1839022;77;31178;-45
2022/06/25 12:28:45;;;;;;;0.25;0.25;;;;;;;30.69;37.92;98574.55;1839441;77;28263;-43
2022/06/25 12:31:36;;;;;;;0.30;0.30;;;;;;;30.69;37.85;98575.93;1838036;77;28220;-43
2022/06/25 12:34:26;;;;;;;0.30;0.30;;;;;;;30.68;37.86;98570.94;1808520;78;28317;-48
2022/06/25 12:37:29;;;;;;;0.30;0.30;;;;;;;30.70;37.83;98569.23;1793447;77;28870;-44
2022/06/25 12:40:21;;;;;;;0.25;0.25;;;;;;;30.73;37.79;98571.40;1780607;78;28320;-46
2022/06/25 12:43:14;;;;;;;0.33;0.33;;;;;;;30.70;37.82;98570.63;1783506;78;32302;-46
2022/06/25 12:46:08;;;;;;;0.20;0.20;;;;;;;30.72;37.81;98569.19;1836278;77;28159;-45
2022/06/25 12:49:02;;;;;;;0.30;0.30;;;;;;;30.72;37.76;98563.64;1828830;77;28337;-43
2022/06/25 12:51:51;;;;;;;0.20;0.20;;;;;;;30.73;37.74;98560.31;1827041;77;28246;-44
2022/06/25 12:54:46;;;;;;;0.40;0.40;;;;;;;30.71;37.77;98545.94;1839187;77;28262;-42
2022/06/25 12:57:37;;;;;;;0.40;0.40;;;;;;;30.72;37.80;98549.77;1839627;77;28237;-45
2022/06/25 13:00:27;;;;;;;0.30;0.30;;;;;;;30.74;37.72;98550.84;1821521;77;28344;-44
2022/06/25 13:03:16;;;;;;;0.30;0.30;;;;;;;30.72;37.75;98540.07;1800982;78;28326;-44
2022/06/25 13:06:06;;;;;;;0.28;0.28;;;;;;;30.77;37.65;98544.68;1795724;79;28385;-42
2022/06/25 13:08:55;;;;;;;0.20;0.20;;;;;;;30.77;37.62;98551.61;1779158;79;28385;-47
2022/06/25 13:11:44;;;;;;;0.50;0.20;;;;;;;30.78;37.66;98553.27;1784842;78;28335;-44
2022/06/25 13:14:32;;;;;;;0.28;0.28;;;;;;;30.78;37.65;98545.51;1833308;77;28238;-45
2022/06/25 13:17:20;;;;;;;0.20;0.20;;;;;;;30.77;37.64;98553.00;1841789;77;28159;-44
2022/06/25 13:20:10;;;;;;;0.30;0.30;;;;;;;30.79;37.61;98553.50;1817810;77;28724;-42
2022/06/25 13:22:59;;;;;;;0.30;0.30;;;;;;;30.79;37.64;98554.89;1779165;78;28503;-45
2022/06/25 13:25:47;;;;;;;0.30;0.30;;;;;;;30.80;37.59;98551.00;1792384;78;28321;-43
2022/06/25 13:28:35;;;;;;;0.30;0.30;;;;;;;30.80;37.60;98559.87;1794425;78;28253;-45
2022/06/25 13:31:24;;;;;;;0.30;0.30;;;;;;;30.78;37.58;98551.29;1834613;77;28214;-44
2022/06/25 13:34:14;;;;;;;0.30;0.30;;;;;;;30.78;37.63;98546.33;1797323;79;28309;-44
2022/06/25 13:37:03;;;;;;;0.33;0.33;;;;;;;30.79;37.64;98545.19;1840531;77;28184;-43
2022/06/25 13:39:52;;;;;;;0.20;0.20;;;;;;;30.79;37.62;98542.41;1825462;76;28248;-45
2022/06/25 13:42:41;;;;;;;0.30;0.30;;;;;;;30.79;37.63;98542.41;1830901;77;28283;-42